Time;durP1;ratioP1;P1;durP2;ratioP2;P2;SDS_P1;SDS_P2;PMS_P1;PMS_P2;Temp;Humidity;BMP_temperature;BMP_pressure;BME280_temperature;BME280_humidity;BME280_pressure;Samples;Min_cycle;Max_cycle;Signal;HPM_P1;HPM_P2
2022/03/12 05:52:15;;;;;;;13.87;7.63;;;2.60;86.90;;;;;;5084824;23;20054;-81
2022/03/12 05:54:45;;;;;;;11.18;6.97;;;2.70;85.20;;;;;;4900108;29;20300;-80
2022/03/12 05:57:13;;;;;;;12.82;6.63;;;3.00;83.30;;;;;;4899884;29;20051;-82
2022/03/12 05:59:40;;;;;;;11.20;6.22;;;3.20;83.40;;;;;;4900020;29;20095;-82
2022/03/12 06:02:07;;;;;;;11.52;6.40;;;3.30;83.10;;;;;;4897460;29;20143;-80
2022/03/12 06:04:35;;;;;;;11.35;6.85;;;3.30;84.80;;;;;;4895969;29;20049;-83
2022/03/12 06:07:02;;;;;;;13.18;6.68;;;3.30;85.00;;;;;;4897085;29;20053;-86
2022/03/12 06:09:30;;;;;;;14.38;7.18;;;3.30;85.00;;;;;;4899534;29;20268;-82
2022/03/12 06:11:58;;;;;;;11.40;6.65;;;3.40;84.50;;;;;;4896418;29;20124;-83
2022/03/12 06:14:25;;;;;;;11.75;6.43;;;3.40;85.50;;;;;;4901062;29;20090;-84
2022/03/12 06:16:53;;;;;;;11.40;6.32;;;3.50;85.50;;;;;;4900519;29;20055;-84
2022/03/12 06:19:21;;;;;;;13.32;7.68;;;3.50;85.10;;;;;;4900193;29;20104;-85
2022/03/12 06:21:49;;;;;;;12.60;6.93;;;3.30;83.60;;;;;;4899507;29;20127;-83
2022/03/12 06:24:16;;;;;;;10.77;6.75;;;3.40;84.10;;;;;;4899428;29;20136;-82
2022/03/12 06:26:45;;;;;;;12.10;6.95;;;3.50;83.50;;;;;;4897178;29;20509;-84
2022/03/12 06:29:13;;;;;;;13.63;7.38;;;3.50;84.50;;;;;;4900264;29;20126;-85
2022/03/12 06:31:42;;;;;;;10.95;6.38;;;3.60;84.50;;;;;;4897671;29;20067;-83
2022/03/12 06:34:12;;;;;;;12.20;6.97;;;3.60;84.10;;;;;;4898475;29;20454;-83
2022/03/12 06:36:40;;;;;;;13.93;7.47;;;3.80;84.80;;;;;;4899865;29;20049;-85
2022/03/12 06:39:08;;;;;;;14.50;7.35;;;3.70;83.20;;;;;;4899255;29;20052;-84
2022/03/12 06:41:41;;;;;;;13.77;8.02;;;3.60;84.90;;;;;;4899553;29;20495;-84
2022/03/12 06:44:11;;;;;;;13.05;7.78;;;3.70;85.00;;;;;;4899016;29;20490;-83
2022/03/12 06:46:38;;;;;;;15.32;7.35;;;3.80;84.10;;;;;;4899426;29;20052;-82
2022/03/12 06:49:06;;;;;;;14.02;7.60;;;3.90;81.80;;;;;;4898838;29;20132;-83
2022/03/12 06:51:34;;;;;;;12.52;7.70;;;3.90;80.90;;;;;;4895459;29;20087;-89
2022/03/12 06:54:01;;;;;;;11.05;6.32;;;4.00;81.00;;;;;;4911868;29;20064;-86
2022/03/12 06:56:29;;;;;;;12.63;7.47;;;4.10;79.40;;;;;;4906824;29;20048;-85
2022/03/12 06:58:56;;;;;;;15.27;8.02;;;4.00;79.10;;;;;;4901675;29;20052;-85
2022/03/12 07:01:24;;;;;;;13.32;8.30;;;3.90;78.70;;;;;;4900281;29;20418;-84
2022/03/12 07:03:51;;;;;;;17.23;9.27;;;3.60;82.50;;;;;;4900020;29;20470;-83
2022/03/12 07:06:19;;;;;;;13.75;8.45;;;3.40;84.60;;;;;;4911183;29;20036;-83
2022/03/12 07:08:48;;;;;;;12.23;7.30;;;3.50;85.10;;;;;;4919283;29;20096;-83
2022/03/12 07:11:15;;;;;;;12.25;7.47;;;3.50;84.50;;;;;;4917986;29;20250;-82
2022/03/12 07:13:43;;;;;;;11.18;6.63;;;3.70;83.10;;;;;;4918721;29;20055;-81
2022/03/12 07:16:10;;;;;;;14.43;7.68;;;3.80;81.50;;;;;;4905121;29;20486;-81
2022/03/12 07:18:39;;;;;;;13.20;7.30;;;3.90;81.50;;;;;;4912443;29;20068;-86
2022/03/12 07:21:07;;;;;;;11.60;7.00;;;4.00;81.60;;;;;;4917706;29;20052;-87
2022/03/12 07:23:35;;;;;;;12.45;7.20;;;4.10;81.10;;;;;;4913341;29;20064;-86
2022/03/12 07:26:02;;;;;;;12.13;6.50;;;4.20;79.90;;;;;;4903677;29;20079;-85
2022/03/12 07:28:32;;;;;;;10.85;6.45;;;4.30;79.30;;;;;;4903196;29;20107;-87
2022/03/12 07:30:59;;;;;;;12.60;6.60;;;4.40;78.90;;;;;;4903481;29;20051;-87
2022/03/12 07:33:28;;;;;;;13.68;7.72;;;4.40;78.80;;;;;;4901706;29;20083;-87
2022/03/12 07:35:56;;;;;;;11.52;7.00;;;4.30;77.70;;;;;;4883716;29;20475;-86
2022/03/12 07:38:23;;;;;;;11.73;7.25;;;4.30;77.50;;;;;;4900751;29;20145;-85
2022/03/12 07:40:51;;;;;;;13.70;7.80;;;4.30;76.90;;;;;;4899165;29;20506;-84
2022/03/12 07:43:18;;;;;;;15.30;8.30;;;4.40;76.80;;;;;;4899795;29;20081;-84
2022/03/12 07:45:47;;;;;;;11.35;6.32;;;4.30;75.80;;;;;;4898578;29;20072;-84
2022/03/12 07:48:14;;;;;;;9.25;5.90;;;4.50;75.10;;;;;;4898358;29;20132;-85
2022/03/12 07:50:44;;;;;;;10.52;5.65;;;4.60;73.10;;;;;;4899726;29;20498;-93
2022/03/12 07:53:14;;;;;;;11.45;6.47;;;4.60;73.20;;;;;;4902130;29;20080;-92
2022/03/12 07:55:41;;;;;;;10.48;6.10;;;4.70;72.60;;;;;;4898756;29;20074;-92
2022/03/12 07:58:09;;;;;;;12.25;7.10;;;4.70;71.80;;;;;;4898831;29;20073;-82
2022/03/12 08:00:39;;;;;;;13.02;6.90;;;4.60;71.70;;;;;;4897474;29;20053;-82
2022/03/12 08:03:06;;;;;;;11.60;7.03;;;4.60;72.40;;;;;;4897546;29;20056;-84
2022/03/12 08:05:33;;;;;;;12.85;7.00;;;4.50;71.50;;;;;;4898559;29;20052;-83
2022/03/12 08:08:02;;;;;;;11.07;6.68;;;4.70;71.80;;;;;;4898061;29;20084;-82
2022/03/12 08:11:24;;;;;;;20.77;10.90;;;4.80;71.70;;;;;;4898334;29;20132;-82
2022/03/12 08:13:21;;;;;;;20.88;11.25;;;5.00;71.50;;;;;;4898759;29;20052;-81
2022/03/12 08:15:49;;;;;;;17.92;9.70;;;5.10;70.70;;;;;;4898459;29;20052;-82
2022/03/12 08:18:16;;;;;;;13.82;7.82;;;5.10;69.30;;;;;;4898345;29;20045;-81
2022/03/12 08:20:44;;;;;;;12.57;7.13;;;5.10;69.60;;;;;;4898175;29;20127;-82
2022/03/12 08:23:11;;;;;;;11.73;7.22;;;5.20;69.90;;;;;;4897622;29;20052;-84
2022/03/12 08:25:40;;;;;;;13.88;7.93;;;5.30;70.20;;;;;;4899556;29;20059;-86
2022/03/12 08:28:07;;;;;;;11.93;6.85;;;5.30;70.60;;;;;;4898669;29;20056;-86
2022/03/12 08:30:35;;;;;;;12.07;7.03;;;5.40;70.60;;;;;;4898554;29;20140;-85
2022/03/12 08:33:04;;;;;;;13.63;7.68;;;5.50;70.00;;;;;;4898565;29;20079;-86
2022/03/12 08:35:32;;;;;;;10.55;6.07;;;5.50;69.50;;;;;;4898707;29;20063;-86
2022/03/12 08:37:59;;;;;;;13.68;7.15;;;5.60;68.90;;;;;;4898718;29;20410;-88
2022/03/12 08:40:29;;;;;;;12.35;7.20;;;5.60;68.20;;;;;;4882582;29;20463;-87
2022/03/12 08:42:58;;;;;;;11.90;7.57;;;5.70;67.40;;;;;;4882922;29;20053;-87
2022/03/12 08:45:25;;;;;;;11.32;6.72;;;5.70;67.30;;;;;;4898714;29;20131;-86
2022/03/12 08:47:53;;;;;;;15.05;7.55;;;5.70;66.80;;;;;;4881836;29;20051;-86
2022/03/12 08:50:20;;;;;;;11.48;6.80;;;5.80;66.30;;;;;;4898787;29;20455;-87
2022/03/12 08:52:50;;;;;;;12.50;6.57;;;5.90;66.20;;;;;;4898155;29;20048;-87
2022/03/12 08:55:17;;;;;;;12.18;7.32;;;6.00;65.80;;;;;;4899239;29;20074;-84
2022/03/12 08:57:45;;;;;;;12.90;7.65;;;6.00;66.00;;;;;;4898982;29;20055;-87
2022/03/12 09:00:16;;;;;;;12.82;7.80;;;6.10;65.60;;;;;;4900103;29;20060;-86
2022/03/12 09:02:47;;;;;;;13.52;7.40;;;6.20;65.20;;;;;;4900759;29;20505;-86
2022/03/12 09:05:15;;;;;;;13.18;7.35;;;6.10;64.40;;;;;;4902010;29;20057;-84
2022/03/12 09:07:44;;;;;;;10.35;5.70;;;6.30;64.00;;;;;;4901293;29;20552;-84
2022/03/12 09:10:13;;;;;;;10.75;5.60;;;6.40;63.90;;;;;;4909305;29;20139;-85
2022/03/12 09:12:41;;;;;;;13.05;7.45;;;6.60;64.60;;;;;;4895439;29;20084;-83
2022/03/12 09:15:11;;;;;;;12.93;7.78;;;6.40;63.00;;;;;;4902638;29;20135;-78
2022/03/12 09:17:39;;;;;;;12.32;6.30;;;6.50;63.30;;;;;;4900502;29;20491;-80
2022/03/12 09:20:09;;;;;;;11.70;6.47;;;6.70;62.70;;;;;;4901264;29;20609;-80
2022/03/12 09:22:36;;;;;;;11.95;6.50;;;6.80;62.50;;;;;;4901088;29;20048;-80
2022/03/12 09:25:11;;;;;;;11.25;6.82;;;6.90;62.30;;;;;;4902014;29;20053;-81
2022/03/12 09:27:39;;;;;;;13.10;7.10;;;7.00;61.90;;;;;;4900923;29;20071;-79
2022/03/12 09:30:09;;;;;;;10.65;6.22;;;7.10;61.40;;;;;;4900917;29;20139;-79
2022/03/12 09:32:36;;;;;;;10.18;5.82;;;7.20;61.20;;;;;;4900706;29;20096;-80
2022/03/12 09:35:05;;;;;;;10.60;6.75;;;7.40;61.60;;;;;;4900405;29;20529;-78
2022/03/12 09:37:33;;;;;;;11.23;6.80;;;7.30;60.90;;;;;;4901183;29;20131;-78
2022/03/12 09:40:00;;;;;;;12.20;6.85;;;7.60;61.30;;;;;;4900911;29;20052;-79
2022/03/12 09:42:30;;;;;;;10.68;6.43;;;7.60;60.80;;;;;;4900685;29;20065;-78
2022/03/12 09:44:58;;;;;;;10.48;6.53;;;7.80;61.00;;;;;;4900582;29;20463;-79
2022/03/12 09:47:25;;;;;;;14.38;7.22;;;7.90;60.20;;;;;;4900655;29;20049;-81
2022/03/12 09:49:53;;;;;;;17.15;9.88;;;7.90;60.00;;;;;;4900503;29;20048;-87
2022/03/12 09:52:21;;;;;;;16.50;8.10;;;7.90;59.70;;;;;;4900493;29;20084;-85
2022/03/12 09:54:49;;;;;;;11.75;7.00;;;8.00;59.60;;;;;;4897691;29;20044;-85
2022/03/12 09:57:16;;;;;;;14.10;7.32;;;8.00;59.60;;;;;;4884218;29;20052;-83
2022/03/12 09:59:44;;;;;;;16.30;9.05;;;8.20;59.10;;;;;;4900173;29;20509;-81
2022/03/12 10:02:11;;;;;;;13.32;7.60;;;8.20;58.90;;;;;;4900342;29;20045;-82
2022/03/12 10:04:38;;;;;;;13.80;8.10;;;8.30;59.10;;;;;;4900041;29;20409;-82
2022/03/12 10:07:09;;;;;;;12.85;7.85;;;8.30;59.20;;;;;;4900080;29;20049;-83
2022/03/12 10:09:38;;;;;;;11.20;6.50;;;8.50;58.60;;;;;;4900050;29;20214;-84
2022/03/12 10:12:10;;;;;;;12.25;6.63;;;8.60;58.90;;;;;;4899305;29;20522;-82
2022/03/12 10:14:37;;;;;;;15.50;8.43;;;8.70;58.00;;;;;;4899668;29;20048;-81
2022/03/12 10:17:07;;;;;;;11.65;6.68;;;8.70;58.00;;;;;;4899732;29;20053;-84
2022/03/12 10:19:38;;;;;;;17.02;10.30;;;8.90;58.10;;;;;;4900099;29;20053;-83
2022/03/12 10:22:08;;;;;;;13.43;7.55;;;9.00;57.40;;;;;;4899967;29;20056;-82
2022/03/12 10:24:37;;;;;;;13.85;7.13;;;9.20;57.00;;;;;;4898832;29;20055;-81
2022/03/12 10:27:06;;;;;;;15.40;8.85;;;9.30;56.70;;;;;;4899590;29;20052;-83
2022/03/12 10:29:34;;;;;;;12.55;8.60;;;9.40;55.90;;;;;;4899769;29;20048;-82
2022/03/12 10:32:01;;;;;;;16.67;9.55;;;9.60;55.80;;;;;;4899751;29;20502;-82
2022/03/12 10:34:32;;;;;;;16.08;9.40;;;9.60;55.90;;;;;;4899739;29;20131;-83
2022/03/12 10:37:01;;;;;;;17.92;9.75;;;9.70;55.60;;;;;;4899427;29;20045;-82
2022/03/12 10:39:33;;;;;;;13.75;7.90;;;9.90;55.60;;;;;;4881020;29;20148;-83
2022/03/12 10:42:07;;;;;;;13.27;8.57;;;10.10;55.40;;;;;;4879742;29;20053;-82
2022/03/12 10:44:35;;;;;;;16.13;9.20;;;10.20;55.20;;;;;;4880946;29;20474;-82
2022/03/12 10:47:02;;;;;;;15.55;9.02;;;10.30;55.10;;;;;;4880864;29;20136;-83
2022/03/12 10:49:30;;;;;;;12.30;7.30;;;10.60;55.00;;;;;;4880987;29;20049;-82
2022/03/12 10:51:58;;;;;;;15.88;9.93;;;10.70;54.80;;;;;;4898466;29;20259;-80
2022/03/12 10:54:28;;;;;;;14.25;9.40;;;10.80;55.00;;;;;;4899391;29;20067;-81
2022/03/12 10:56:57;;;;;;;16.17;10.32;;;10.80;55.30;;;;;;4899264;29;20048;-83
2022/03/12 10:59:27;;;;;;;18.50;10.77;;;10.90;54.90;;;;;;4899346;29;20056;-80
2022/03/12 11:01:57;;;;;;;16.20;9.27;;;11.00;55.10;;;;;;4899336;29;20574;-81
2022/03/12 11:04:30;;;;;;;13.38;8.85;;;11.20;55.30;;;;;;4898721;29;20056;-81
2022/03/12 11:07:01;;;;;;;14.77;9.55;;;11.20;55.80;;;;;;4899151;29;20049;-81
2022/03/12 11:09:38;;;;;;;17.67;9.43;;;11.40;55.80;;;;;;4899323;29;20136;-81
2022/03/12 11:12:29;;;;;;;16.83;9.20;;;11.40;55.60;;;;;;4898830;29;20136;-80
2022/03/12 11:15:05;;;;;;;14.20;9.20;;;11.50;56.00;;;;;;4899171;29;20199;-81
2022/03/12 11:17:43;;;;;;;12.43;7.18;;;11.60;56.40;;;;;;4899166;29;20055;-81
2022/03/12 11:20:17;;;;;;;13.35;8.48;;;11.70;56.40;;;;;;4898981;29;20104;-80
2022/03/12 11:22:44;;;;;;;13.95;9.13;;;11.80;56.90;;;;;;4898906;29;20112;-80
2022/03/12 11:25:15;;;;;;;13.73;7.88;;;11.80;56.50;;;;;;4896526;29;20084;-82
2022/03/12 11:27:43;;;;;;;11.18;7.50;;;11.90;56.80;;;;;;4898607;29;20045;-80
2022/03/12 11:30:13;;;;;;;11.93;7.20;;;11.90;56.80;;;;;;4895510;29;20057;-83
2022/03/12 11:32:46;;;;;;;11.65;7.53;;;12.00;56.60;;;;;;4898792;29;20059;-86
2022/03/12 11:35:17;;;;;;;12.05;8.43;;;12.00;56.40;;;;;;4897951;29;20059;-81
2022/03/12 11:37:47;;;;;;;11.07;7.43;;;12.10;57.00;;;;;;4897834;29;20104;-82
2022/03/12 11:40:19;;;;;;;12.38;7.82;;;12.20;55.80;;;;;;4897166;29;20059;-83
2022/03/12 11:42:48;;;;;;;10.85;7.00;;;12.30;56.40;;;;;;4898373;29;20080;-83
2022/03/12 11:45:18;;;;;;;12.45;7.72;;;12.50;57.00;;;;;;4897548;29;20044;-84
2022/03/12 11:47:47;;;;;;;12.30;7.22;;;12.50;57.40;;;;;;4888279;29;20510;-84
2022/03/12 11:50:18;;;;;;;12.48;7.82;;;12.60;57.90;;;;;;4895687;29;20052;-83
2022/03/12 11:52:46;;;;;;;12.80;7.88;;;12.60;58.10;;;;;;4895964;29;20052;-83
2022/03/12 11:55:20;;;;;;;11.35;6.85;;;12.60;59.00;;;;;;4895571;29;20048;-84
2022/03/12 11:57:49;;;;;;;;;;;12.60;60.40;;;;;;4895927;29;20494;-83
2022/03/12 12:00:28;;;;;;;10.57;6.07;;;12.60;60.00;;;;;;4895742;29;19979;-86
2022/03/12 12:02:55;;;;;;;9.75;6.15;;;12.70;59.90;;;;;;4894598;29;20135;-84
2022/03/12 12:05:25;;;;;;;8.95;5.45;;;13.00;59.60;;;;;;4895384;29;20074;-82
2022/03/12 12:07:55;;;;;;;9.80;6.25;;;13.10;60.20;;;;;;4894202;29;20051;-84
2022/03/12 12:10:31;;;;;;;9.30;6.18;;;13.10;58.70;;;;;;4895382;29;20502;-84
2022/03/12 12:13:02;;;;;;;11.95;7.07;;;13.20;58.80;;;;;;4895136;29;20063;-82
2022/03/12 12:15:34;;;;;;;10.35;6.80;;;13.40;58.10;;;;;;4895206;29;20071;-81
2022/03/12 12:18:02;;;;;;;11.45;7.40;;;13.50;57.60;;;;;;4896010;29;20080;-83
2022/03/12 12:20:30;;;;;;;9.90;6.50;;;13.50;57.50;;;;;;4895632;29;20079;-83
2022/03/12 12:23:00;;;;;;;11.35;6.93;;;13.60;57.30;;;;;;4895617;29;20063;-83
2022/03/12 12:25:34;;;;;;;11.50;6.15;;;13.70;57.80;;;;;;4895250;29;20215;-83
2022/03/12 12:28:14;;;;;;;10.03;6.07;;;13.70;58.20;;;;;;4894807;29;20589;-83
2022/03/12 12:30:44;;;;;;;13.07;8.43;;;14.00;58.40;;;;;;4879650;29;20066;-82
2022/03/12 12:33:22;;;;;;;10.70;6.68;;;14.00;57.70;;;;;;4895035;29;20454;-83
2022/03/12 12:35:51;;;;;;;10.13;5.95;;;14.20;57.50;;;;;;4877042;29;20053;-83
2022/03/12 12:38:24;;;;;;;9.93;5.68;;;14.20;58.10;;;;;;4880791;29;20057;-85
2022/03/12 12:40:53;;;;;;;8.75;5.00;;;14.50;57.10;;;;;;4880859;29;20084;-85
2022/03/12 12:43:22;;;;;;;8.57;5.82;;;14.60;56.80;;;;;;4880958;29;20113;-84
2022/03/12 12:46:17;;;;;;;8.05;5.30;;;14.50;56.50;;;;;;4894317;29;20136;-84
2022/03/12 12:48:48;;;;;;;9.48;6.30;;;14.70;56.50;;;;;;4900392;29;20120;-84
2022/03/12 12:51:17;;;;;;;11.13;6.50;;;14.80;55.70;;;;;;4899676;29;20056;-84
2022/03/12 12:53:49;;;;;;;9.80;6.00;;;14.90;56.00;;;;;;4899765;29;20111;-84
2022/03/12 12:56:31;;;;;;;8.68;5.22;;;15.10;55.40;;;;;;4899524;29;20172;-83
2022/03/12 12:59:09;;;;;;;8.48;5.45;;;15.30;54.60;;;;;;4898738;29;20410;-84
2022/03/12 13:01:49;;;;;;;8.65;5.57;;;15.20;54.80;;;;;;4899981;29;20044;-84
2022/03/12 13:04:19;;;;;;;7.93;4.60;;;15.40;54.30;;;;;;4899222;29;20071;-83
2022/03/12 13:06:50;;;;;;;7.47;4.53;;;15.80;53.70;;;;;;4898099;29;20067;-84
2022/03/12 13:09:23;;;;;;;8.02;5.32;;;16.10;52.10;;;;;;4882701;29;20055;-84
2022/03/12 13:12:01;;;;;;;8.50;5.53;;;16.30;51.60;;;;;;4899471;29;20157;-83
2022/03/12 13:14:31;;;;;;;9.57;6.13;;;16.30;51.90;;;;;;4882925;29;20048;-82
2022/03/12 13:17:02;;;;;;;10.65;6.35;;;15.90;51.90;;;;;;4899742;29;20183;-82
2022/03/12 13:19:44;;;;;;;9.40;6.13;;;16.90;50.70;;;;;;4916307;29;20059;-82
2022/03/12 13:22:14;;;;;;;8.07;5.03;;;16.10;50.70;;;;;;4917091;29;20203;-81
2022/03/12 13:24:52;;;;;;;8.15;5.10;;;16.30;51.40;;;;;;4916793;29;20084;-80
2022/03/12 13:27:23;;;;;;;7.50;5.25;;;16.20;51.10;;;;;;4909108;29;20056;-81
2022/03/12 13:30:10;;;;;;;10.10;6.50;;;17.00;50.30;;;;;;4898496;29;20063;-80
2022/03/12 13:32:39;;;;;;;7.78;5.40;;;17.30;48.70;;;;;;4897393;29;20052;-82
2022/03/12 13:35:08;;;;;;;9.25;6.10;;;17.40;48.10;;;;;;4905715;29;20079;-81
2022/03/12 13:37:36;;;;;;;10.13;6.10;;;17.30;48.50;;;;;;4907018;29;20049;-80
2022/03/12 13:40:09;;;;;;;8.95;6.00;;;17.10;48.50;;;;;;4904187;29;20144;-81
2022/03/12 13:42:40;;;;;;;11.35;6.80;;;17.00;48.40;;;;;;4905369;29;20049;-85
2022/03/12 13:45:09;;;;;;;10.00;6.80;;;18.00;47.50;;;;;;4895878;29;20064;-83
2022/03/12 13:47:37;;;;;;;8.30;5.72;;;17.90;46.90;;;;;;4904810;29;20380;-81
2022/03/12 13:50:06;;;;;;;8.07;5.47;;;18.80;46.20;;;;;;4896523;29;20060;-80
2022/03/12 13:52:34;;;;;;;7.57;4.88;;;18.50;46.30;;;;;;4900119;29;20064;-83
2022/03/12 13:55:03;;;;;;;9.95;6.97;;;18.80;46.10;;;;;;4899926;29;20079;-82
2022/03/12 13:57:35;;;;;;;8.48;6.07;;;18.10;45.50;;;;;;4900098;29;20104;-83
2022/03/12 14:00:07;;;;;;;7.97;5.68;;;18.00;45.90;;;;;;4902938;29;20064;-82
2022/03/12 14:02:34;;;;;;;9.45;5.15;;;18.50;46.00;;;;;;4901816;29;20083;-82
2022/03/12 14:05:03;;;;;;;9.50;5.95;;;18.40;45.50;;;;;;4898082;29;20112;-81
2022/03/12 14:07:30;;;;;;;10.60;6.28;;;19.50;44.30;;;;;;4896266;29;20135;-79
2022/03/12 14:10:06;;;;;;;9.45;6.25;;;19.90;43.40;;;;;;4897265;29;20052;-80
2022/03/12 14:12:33;;;;;;;8.25;5.57;;;20.00;42.30;;;;;;4896531;29;20177;-81
2022/03/12 14:15:01;;;;;;;8.68;6.63;;;19.80;43.30;;;;;;4897052;29;20128;-82
2022/03/12 14:17:32;;;;;;;8.50;5.57;;;19.50;42.80;;;;;;4897362;29;20064;-80
2022/03/12 14:20:04;;;;;;;6.82;5.20;;;19.80;43.00;;;;;;4896619;29;20052;-81
2022/03/12 14:22:31;;;;;;;7.55;5.30;;;19.70;42.20;;;;;;4883004;29;20109;-81
2022/03/12 14:25:05;;;;;;;7.68;5.65;;;20.40;41.70;;;;;;4897150;29;20059;-79
2022/03/12 14:27:33;;;;;;;8.00;5.87;;;20.40;40.50;;;;;;4897153;29;20057;-80
2022/03/12 14:30:00;;;;;;;9.95;6.15;;;20.20;41.20;;;;;;4896717;29;20135;-79
2022/03/12 14:32:28;;;;;;;7.78;6.07;;;20.40;41.10;;;;;;4896923;29;20503;-80
2022/03/12 14:34:57;;;;;;;7.78;5.47;;;20.40;40.90;;;;;;4893599;29;20057;-83
2022/03/12 14:37:25;;;;;;;7.82;5.40;;;20.50;40.50;;;;;;4896774;29;20060;-84
2022/03/12 14:39:53;;;;;;;8.18;5.63;;;20.80;40.60;;;;;;4896201;29;20589;-82
2022/03/12 14:42:21;;;;;;;14.82;10.13;;;20.80;40.30;;;;;;4897876;29;20056;-82
2022/03/12 14:44:52;;;;;;;8.10;6.20;;;20.70;39.80;;;;;;4896950;29;20059;-83
2022/03/12 14:47:22;;;;;;;7.18;5.05;;;20.40;40.20;;;;;;4895962;29;20049;-83
2022/03/12 14:49:55;;;;;;;8.40;5.70;;;20.80;40.80;;;;;;4896550;29;20131;-81
2022/03/12 14:52:26;;;;;;;7.15;5.78;;;21.10;39.40;;;;;;4896047;29;20080;-83
2022/03/12 14:54:56;;;;;;;7.82;5.90;;;20.90;39.60;;;;;;4896469;29;20558;-82
2022/03/12 14:57:25;;;;;;;8.45;6.07;;;20.50;40.00;;;;;;4896620;29;20052;-79
2022/03/12 14:59:53;;;;;;;10.07;7.00;;;20.30;40.10;;;;;;4895853;29;20143;-79
2022/03/12 15:02:23;;;;;;;8.75;6.55;;;20.20;39.80;;;;;;4896819;29;20048;-79
2022/03/12 15:05:00;;;;;;;8.70;6.00;;;19.80;40.50;;;;;;4896577;29;20135;-80
2022/03/12 15:07:31;;;;;;;10.13;6.50;;;20.10;40.10;;;;;;4887003;29;20056;-83
2022/03/12 15:10:04;;;;;;;9.55;7.13;;;20.40;39.60;;;;;;4883940;29;20048;-78
2022/03/12 15:12:36;;;;;;;9.10;6.25;;;20.60;39.50;;;;;;4896295;29;20128;-77
2022/03/12 15:15:19;;;;;;;9.25;6.07;;;19.50;39.90;;;;;;4895550;29;20087;-78
2022/03/12 15:17:50;;;;;;;7.57;5.97;;;20.10;40.30;;;;;;4895908;29;20051;-78
2022/03/12 15:20:25;;;;;;;7.82;6.00;;;20.30;39.60;;;;;;4895624;29;20056;-80
2022/03/12 15:23:03;;;;;;;7.28;5.55;;;21.30;39.00;;;;;;4895412;29;20052;-78
2022/03/12 15:25:35;;;;;;;8.63;5.78;;;21.50;38.40;;;;;;4883101;29;20049;-79
2022/03/12 15:28:07;;;;;;;7.00;5.30;;;21.60;37.80;;;;;;4895835;29;20065;-80
2022/03/12 15:30:37;;;;;;;7.13;5.43;;;21.90;37.50;;;;;;4896032;29;20045;-77
2022/03/12 15:33:06;;;;;;;8.27;6.00;;;21.40;37.80;;;;;;4895934;29;20055;-77
2022/03/12 15:35:38;;;;;;;8.20;6.05;;;20.50;38.40;;;;;;4895341;29;20056;-79
2022/03/12 15:38:09;;;;;;;7.95;5.85;;;20.60;39.20;;;;;;4896062;29;20055;-77
2022/03/12 15:40:40;;;;;;;7.47;5.45;;;20.60;39.20;;;;;;4895850;29;20100;-80
2022/03/12 15:43:08;;;;;;;9.20;6.13;;;20.40;39.30;;;;;;4895801;29;20056;-79
2022/03/12 15:45:38;;;;;;;7.75;5.18;;;20.80;39.10;;;;;;4895469;29;20107;-78
2022/03/12 15:48:06;;;;;;;7.10;5.60;;;21.10;38.00;;;;;;4895135;29;20088;-77
2022/03/12 15:50:33;;;;;;;7.22;5.30;;;21.20;38.30;;;;;;4895455;29;20089;-78
2022/03/12 15:53:01;;;;;;;7.60;5.47;;;21.00;38.40;;;;;;4895172;29;20135;-79
2022/03/12 15:55:34;;;;;;;7.43;5.10;;;20.70;38.80;;;;;;4895582;29;20080;-79
2022/03/12 15:58:01;;;;;;;7.72;5.78;;;21.10;38.40;;;;;;4894955;29;20056;-78
2022/03/12 16:00:28;;;;;;;9.50;5.68;;;21.40;38.50;;;;;;4895624;29;20409;-78
2022/03/12 16:02:58;;;;;;;8.63;5.88;;;21.30;37.70;;;;;;4895489;29;20048;-84
2022/03/12 16:05:25;;;;;;;7.10;5.40;;;20.70;39.40;;;;;;4895259;29;20084;-76
2022/03/12 16:07:53;;;;;;;7.95;5.88;;;20.80;38.80;;;;;;4892455;29;20049;-77
2022/03/12 16:10:23;;;;;;;8.23;5.70;;;20.60;38.80;;;;;;4894572;29;20135;-80
2022/03/12 16:12:53;;;;;;;9.95;6.25;;;20.40;39.40;;;;;;4895654;29;20767;-86
2022/03/12 16:15:23;;;;;;;8.68;6.30;;;20.50;39.20;;;;;;4896170;29;20056;-83
2022/03/12 16:17:56;;;;;;;8.50;6.18;;;20.90;38.40;;;;;;4895729;29;20055;-84
2022/03/12 16:20:29;;;;;;;8.27;5.82;;;20.70;39.30;;;;;;4895428;29;20782;-78
2022/03/12 16:22:59;;;;;;;7.50;5.15;;;20.30;38.90;;;;;;4878237;29;20059;-80
2022/03/12 16:25:29;;;;;;;8.43;6.07;;;19.50;40.40;;;;;;4895202;29;20080;-80
2022/03/12 16:27:59;;;;;;;8.77;6.00;;;19.50;40.60;;;;;;4895015;29;20052;-81
2022/03/12 16:30:28;;;;;;;8.70;5.93;;;19.10;41.10;;;;;;4895671;29;20056;-82
2022/03/12 16:32:57;;;;;;;8.95;5.95;;;19.30;41.30;;;;;;4895522;29;20083;-86
2022/03/12 16:35:29;;;;;;;8.95;6.20;;;19.10;41.10;;;;;;4894863;29;20049;-82
2022/03/12 16:37:58;;;;;;;8.02;6.18;;;18.60;41.90;;;;;;4895334;29;20049;-80
2022/03/12 16:40:34;;;;;;;10.48;6.90;;;18.60;42.10;;;;;;4894670;29;20052;-78
2022/03/12 16:43:04;;;;;;;10.32;7.15;;;18.00;41.40;;;;;;4894780;29;20048;-77
2022/03/12 16:45:31;;;;;;;9.23;6.68;;;17.60;41.80;;;;;;4894611;29;20418;-78
2022/03/12 16:47:59;;;;;;;9.93;6.60;;;17.50;42.50;;;;;;4894673;29;20131;-77
2022/03/12 16:50:28;;;;;;;10.77;6.15;;;17.40;41.90;;;;;;4894829;29;20048;-77
2022/03/12 16:52:56;;;;;;;9.70;6.63;;;17.30;42.00;;;;;;4894415;29;20060;-79
2022/03/12 16:55:23;;;;;;;10.20;6.75;;;17.20;42.10;;;;;;4894926;29;20503;-80
2022/03/12 16:57:54;;;;;;;9.82;6.47;;;16.70;42.90;;;;;;4894720;29;20096;-80
2022/03/12 17:00:26;;;;;;;10.45;6.50;;;16.70;43.40;;;;;;4894909;29;20052;-82
2022/03/12 17:02:56;;;;;;;10.05;6.40;;;16.60;43.00;;;;;;4895181;29;20060;-81
2022/03/12 17:05:24;;;;;;;10.35;6.50;;;16.50;43.70;;;;;;4894998;29;20053;-82
2022/03/12 17:07:56;;;;;;;9.68;6.20;;;16.40;43.10;;;;;;4893432;29;20057;-79
2022/03/12 17:10:24;;;;;;;8.90;6.30;;;15.90;45.30;;;;;;4894862;29;20140;-80
2022/03/12 17:12:55;;;;;;;8.73;6.15;;;15.70;44.70;;;;;;4895087;29;20059;-82
2022/03/12 17:15:25;;;;;;;8.73;6.07;;;15.50;45.40;;;;;;4895029;29;20056;-80
2022/03/12 17:17:55;;;;;;;10.27;6.25;;;15.20;46.00;;;;;;4894192;29;20063;-79
2022/03/12 17:20:23;;;;;;;9.45;6.25;;;15.10;46.30;;;;;;4893540;29;20057;-81
2022/03/12 17:22:51;;;;;;;8.65;6.00;;;14.80;46.80;;;;;;4894669;29;20387;-81
2022/03/12 17:25:20;;;;;;;9.85;5.95;;;14.60;47.10;;;;;;4897401;29;20078;-80
2022/03/12 17:27:49;;;;;;;9.77;6.15;;;14.50;47.00;;;;;;4898231;29;21253;-81
2022/03/12 17:30:20;;;;;;;8.40;5.72;;;14.20;47.60;;;;;;4899287;29;20056;-87
2022/03/12 17:32:49;;;;;;;9.55;5.50;;;14.10;48.40;;;;;;4898929;29;20116;-83
2022/03/12 17:35:20;;;;;;;9.75;6.18;;;14.00;48.00;;;;;;4898274;29;20055;-80
2022/03/12 17:37:47;;;;;;;11.70;6.90;;;13.80;49.40;;;;;;4898616;29;20052;-87
2022/03/12 17:40:19;;;;;;;12.27;7.10;;;13.60;49.90;;;;;;4899639;29;20582;-82
2022/03/12 17:42:49;;;;;;;13.25;8.98;;;13.60;49.10;;;;;;4899590;29;20116;-83
2022/03/12 17:45:18;;;;;;;12.55;7.95;;;13.20;50.10;;;;;;4905847;29;20049;-89
2022/03/12 17:47:46;;;;;;;11.45;6.70;;;13.10;49.80;;;;;;4889201;29;20144;-90
2022/03/12 17:50:16;;;;;;;9.55;6.05;;;13.00;50.50;;;;;;4908427;29;20052;-90
2022/03/12 17:52:46;;;;;;;10.68;6.13;;;13.10;50.30;;;;;;4908140;29;20050;-90
2022/03/12 17:55:15;;;;;;;9.13;5.45;;;13.00;49.70;;;;;;4911711;29;20115;-87
2022/03/12 17:57:45;;;;;;;8.50;5.53;;;12.90;51.20;;;;;;4901690;29;20072;-81
2022/03/12 18:00:15;;;;;;;7.72;5.10;;;12.80;51.10;;;;;;4897066;29;20064;-79
2022/03/12 18:02:44;;;;;;;8.48;5.18;;;12.80;50.10;;;;;;4897956;29;20052;-80
2022/03/12 18:05:12;;;;;;;9.63;5.82;;;12.80;50.00;;;;;;4897263;29;20053;-81
2022/03/12 18:07:40;;;;;;;9.35;5.70;;;12.60;49.80;;;;;;4896037;29;20056;-80
2022/03/12 18:10:09;;;;;;;9.82;5.68;;;12.40;50.80;;;;;;4897503;29;20060;-82
2022/03/12 18:12:39;;;;;;;8.93;5.47;;;12.20;52.00;;;;;;4891494;29;20162;-79
2022/03/12 18:15:08;;;;;;;9.65;6.20;;;12.10;52.60;;;;;;4897538;29;20048;-80
2022/03/12 18:17:36;;;;;;;8.90;5.95;;;12.00;52.40;;;;;;4897818;29;20052;-80
2022/03/12 18:20:04;;;;;;;8.18;5.43;;;11.80;52.90;;;;;;4897494;29;20059;-77
2022/03/12 18:22:31;;;;;;;11.63;5.95;;;11.80;53.10;;;;;;4896573;29;20578;-80
2022/03/12 18:24:59;;;;;;;8.73;5.30;;;11.80;52.30;;;;;;4897960;29;20053;-81
2022/03/12 18:27:27;;;;;;;9.05;5.65;;;11.70;53.60;;;;;;4898152;29;20049;-80
2022/03/12 18:29:54;;;;;;;10.32;5.32;;;11.70;53.50;;;;;;4897650;29;20056;-85
2022/03/12 18:32:26;;;;;;;9.07;5.63;;;11.70;53.30;;;;;;4898087;29;20505;-82
2022/03/12 18:34:54;;;;;;;8.30;5.40;;;11.60;52.90;;;;;;4896554;29;20392;-83
2022/03/12 18:37:23;;;;;;;10.07;5.88;;;11.50;53.50;;;;;;4897934;29;20116;-83
2022/03/12 18:39:52;;;;;;;10.63;6.20;;;11.40;53.20;;;;;;4897237;29;20406;-81
2022/03/12 18:42:20;;;;;;;14.00;8.45;;;11.30;53.20;;;;;;4897290;29;20052;-82
2022/03/12 18:44:48;;;;;;;14.35;7.93;;;11.10;53.70;;;;;;4897105;29;20064;-83
2022/03/12 18:47:18;;;;;;;13.43;7.30;;;11.10;54.00;;;;;;4897103;29;20049;-81
2022/03/12 18:49:47;;;;;;;12.43;6.85;;;10.50;55.30;;;;;;4897205;29;20064;-79